TimeEST,TemperatureF,Dew PointF,Humidity,Sea Level PressureIn,VisibilityMPH,Wind Direction,Wind SpeedMPH,Gust SpeedMPH,PrecipitationIn,Events,Conditions,WindDirDegrees,DateUTC
12:54 AM,46.9,45.0,93,29.79,10.0,WNW,9.2,-,0.00,,Overcast,290,2014-01-14 05:54:00
1:54 AM,46.0,43.0,89,29.81,10.0,West,5.8,-,0.00,,Overcast,280,2014-01-14 06:54:00
2:54 AM,45.0,42.1,90,29.80,10.0,WNW,6.9,-,N/A,,Overcast,290,2014-01-14 07:54:00
3:54 AM,43.0,41.0,93,29.83,7.0,WSW,5.8,-,N/A,,Mostly Cloudy,250,2014-01-14 08:54:00
4:54 AM,42.1,39.0,89,29.82,10.0,West,6.9,-,N/A,,Clear,280,2014-01-14 09:54:00
5:54 AM,39.0,37.0,93,29.84,10.0,WSW,5.8,-,N/A,,Clear,250,2014-01-14 10:54:00
6:54 AM,37.0,34.0,89,29.85,9.0,West,6.9,-,N/A,,Clear,280,2014-01-14 11:54:00
7:54 AM,36.0,32.0,86,29.87,10.0,WSW,3.5,-,N/A,,Clear,240,2014-01-14 12:54:00
8:54 AM,36.0,33.1,89,29.89,9.0,WSW,3.5,-,N/A,,Clear,240,2014-01-14 13:54:00
9:54 AM,39.0,35.1,86,29.90,10.0,WSW,6.9,-,N/A,,Clear,250,2014-01-14 14:54:00
10:54 AM,41.0,36.0,82,29.91,10.0,SW,9.2,-,N/A,,Clear,220,2014-01-14 15:54:00
11:54 AM,45.0,35.1,68,29.91,10.0,SW,13.8,-,N/A,,Clear,220,2014-01-14 16:54:00
12:54 PM,46.0,32.0,58,29.87,10.0,WSW,16.1,-,N/A,,Clear,240,2014-01-14 17:54:00
1:54 PM,48.9,30.0,48,29.85,10.0,SW,16.1,-,N/A,,Clear,220,2014-01-14 18:54:00
2:54 PM,50.0,30.0,46,29.83,10.0,SSW,13.8,-,N/A,,Clear,200,2014-01-14 19:54:00
3:54 PM,51.1,28.9,43,29.83,10.0,South,16.1,21.9,N/A,,Clear,190,2014-01-14 20:54:00
4:54 PM,48.9,28.9,46,29.83,10.0,SSW,12.7,-,N/A,,Scattered Clouds,200,2014-01-14 21:54:00
5:54 PM,46.9,30.0,52,29.85,10.0,SSW,9.2,-,N/A,,Overcast,200,2014-01-14 22:54:00
6:54 PM,46.9,30.9,54,29.86,10.0,South,9.2,-,N/A,,Overcast,190,2014-01-14 23:54:00
7:54 PM,46.0,34.0,63,29.90,10.0,WNW,20.7,28.8,0.00,Rain,Light Rain,300,2014-01-15 00:54:00
8:08 PM,43.0,37.0,80,29.90,10.0,WNW,20.7,28.8,0.00,Rain,Light Rain,290,2014-01-15 01:08:00
8:27 PM,39.9,36.0,86,29.91,10.0,NW,19.6,29.9,0.01,Rain,Light Rain,310,2014-01-15 01:27:00
8:54 PM,37.9,35.1,89,29.94,10.0,West,12.7,-,0.02,Rain,Light Rain,280,2014-01-15 01:54:00
9:54 PM,37.0,33.1,86,29.96,10.0,WNW,9.2,-,0.04,Rain,Light Rain,290,2014-01-15 02:54:00
10:54 PM,37.0,33.1,86,29.96,10.0,West,8.1,-,0.00,,Overcast,280,2014-01-15 03:54:00
11:54 PM,37.0,33.1,86,29.96,10.0,West,5.8,-,0.00,,Overcast,270,2014-01-15 04:54:00